Karen Andrie — WBS5272 — position and weather

sailwx.info

Track history (hours):
 
Tides and Currents Weather Stations Pressure Air Temp Water Temp Dewpoint Dewpoint Depression Visibility Wind Speed Wind Dir Waves Ship Positions

Karen Andrie

Owner: ANDRIE INC, MUSKEGON, MI. More information available from US FCC via Universal Licensing System and Coast Guard Vessel Documentation Center.

Last reported at 2017-Dec-01 18:00 UTC. Time now 2017-Dec-18 07:02 UTC.
Position N 45°50' W 085°43'.
Warning: this ship's position is 16 days out of date.

Length 34 m; draft 5.1 m.

Type: Towing. MMSI: 366937150.

Date/timePositionNaut miles runAvg speedWind from/ knotsBaromVisibWave heightAir tempDewpointWater temp
2017-Dec-01 18:00N 45°50' W 085°43'2710.3
2017-Dec-01 15:24N 45°51' W 085°04'410.9
2017-Dec-01 15:00N 45°51' W 084°58'510.9
2017-Dec-01 14:30N 45°50' W 084°50'611.3
2017-Dec-01 14:00N 45°49' W 084°42'611.0
2017-Dec-01 13:30N 45°46' W 084°36'2510.6
2017-Dec-01 11:07N 45°36' W 084°02'210.4
2017-Dec-01 10:59N 45°35' W 084°01'510.5
2017-Dec-01 10:30N 45°33' W 083°54'510.5
2017-Dec-01 10:00N 45°30' W 083°48'510.3
2017-Dec-01 09:30N 45°28' W 083°41'510.1
2017-Dec-01 09:00N 45°26' W 083°35'  
2017-Nov-27 09:00N 45°24' W 083°24'337.7 340 / 171019.610.8 1.6
2017-Nov-27 08:55N 45°23' W 083°28'410.1
2017-Nov-27 08:30N 45°25' W 083°33'510.1
2017-Nov-27 08:01N 45°27' W 083°40'3179.4
2017-Nov-27 08:00N 45°30' W 083°42'3 5.9 330 / 201019.610.8 1.1
2017-Nov-27 07:30N 45°30' W 083°46'510.0
2017-Nov-27 07:00N 45°32' W 083°52'610.1
2017-Nov-27 06:25N 45°35' W 083°60'1510.0
2017-Nov-27 04:53N 45°42' W 084°20'7 5.4
2017-Nov-27 03:38N 45°42' W 084°29'1 5.5
2017-Nov-27 03:23N 45°43' W 084°31'2 5.5
2017-Nov-27 03:00N 45°44' W 084°33'3 5.4
2017-Nov-27 02:30N 45°46' W 084°37'3 5.4
2017-Nov-27 02:01N 45°48' W 084°40'2 3.1
2017-Nov-27 01:24N 45°47' W 084°37'2 4.1
2017-Nov-27 01:00N 45°46' W 084°35'3 4.1
2017-Nov-27 00:23N 45°44' W 084°32'2 3.8
2017-Nov-26 23:58N 45°43' W 084°30'6 3.4
2017-Nov-26 22:07N 45°41' W 084°22'9 5.7
2017-Nov-26 20:30N 45°44' W 084°34'3 5.3
2017-Nov-26 20:00N 45°46' W 084°37'3 5.8
2017-Nov-26 19:30N 45°48' W 084°40'510.5
2017-Nov-26 19:00N 45°49' W 084°48'510.6
2017-Nov-26 18:30N 45°50' W 084°55'510.6
2017-Nov-26 18:00N 45°50' W 085°03'4 8.8
2017-Nov-26 17:30N 45°48' W 085°08'510.0
2017-Nov-26 17:00N 45°44' W 085°11'510.8
2017-Nov-26 16:30N 45°39' W 085°16'510.7
2017-Nov-26 16:00N 45°35' W 085°20'510.7
2017-Nov-26 15:31N 45°31' W 085°25'510.7
2017-Nov-26 15:00N 45°26' W 085°30'510.7
2017-Nov-26 14:30N 45°22' W 085°34'510.6
2017-Nov-26 14:00N 45°18' W 085°39'510.6
2017-Nov-26 13:30N 45°13' W 085°43'3510.1
2017-Nov-26 10:00N 44°48' W 086°18'   270 / 101022.610.8 0.5
Track history (hours):
 
Tides and Currents Weather Stations Pressure Air Temp Water Temp Dewpoint Dewpoint Depression Visibility Wind Speed Wind Dir Waves Ship Positions

Karen Andrie

Owner: ANDRIE INC, MUSKEGON, MI. More information available from US FCC via Universal Licensing System and Coast Guard Vessel Documentation Center.

Last reported at 2017-Dec-01 18:00 UTC. Time now 2017-Dec-18 07:02 UTC.
Position N 45°50' W 085°43'.
Warning: this ship's position is 16 days out of date.

Length 34 m; draft 5.1 m.

Type: Towing. MMSI: 366937150.

Date/timePositionNaut miles runAvg speedWind from/ knotsBaromVisibWave heightAir tempDewpointWater temp
2017-Dec-01 18:00N 45°50' W 085°43'2710.3
2017-Dec-01 15:24N 45°51' W 085°04'410.9
2017-Dec-01 15:00N 45°51' W 084°58'510.9
2017-Dec-01 14:30N 45°50' W 084°50'611.3
2017-Dec-01 14:00N 45°49' W 084°42'611.0
2017-Dec-01 13:30N 45°46' W 084°36'2510.6
2017-Dec-01 11:07N 45°36' W 084°02'210.4
2017-Dec-01 10:59N 45°35' W 084°01'510.5
2017-Dec-01 10:30N 45°33' W 083°54'510.5
2017-Dec-01 10:00N 45°30' W 083°48'510.3
2017-Dec-01 09:30N 45°28' W 083°41'510.1
2017-Dec-01 09:00N 45°26' W 083°35'  
2017-Nov-27 09:00N 45°24' W 083°24'337.7 340 / 171019.610.8 1.6
2017-Nov-27 08:55N 45°23' W 083°28'410.1
2017-Nov-27 08:30N 45°25' W 083°33'510.1
2017-Nov-27 08:01N 45°27' W 083°40'3179.4
2017-Nov-27 08:00N 45°30' W 083°42'3 5.9 330 / 201019.610.8 1.1
2017-Nov-27 07:30N 45°30' W 083°46'510.0
2017-Nov-27 07:00N 45°32' W 083°52'610.1
2017-Nov-27 06:25N 45°35' W 083°60'1510.0
2017-Nov-27 04:53N 45°42' W 084°20'7 5.4
2017-Nov-27 03:38N 45°42' W 084°29'1 5.5
2017-Nov-27 03:23N 45°43' W 084°31'2 5.5
2017-Nov-27 03:00N 45°44' W 084°33'3 5.4
2017-Nov-27 02:30N 45°46' W 084°37'3 5.4
2017-Nov-27 02:01N 45°48' W 084°40'2 3.1
2017-Nov-27 01:24N 45°47' W 084°37'2 4.1
2017-Nov-27 01:00N 45°46' W 084°35'3 4.1
2017-Nov-27 00:23N 45°44' W 084°32'2 3.8
2017-Nov-26 23:58N 45°43' W 084°30'6 3.4
2017-Nov-26 22:07N 45°41' W 084°22'9 5.7
2017-Nov-26 20:30N 45°44' W 084°34'3 5.3
2017-Nov-26 20:00N 45°46' W 084°37'3 5.8
2017-Nov-26 19:30N 45°48' W 084°40'510.5
2017-Nov-26 19:00N 45°49' W 084°48'510.6
2017-Nov-26 18:30N 45°50' W 084°55'510.6
2017-Nov-26 18:00N 45°50' W 085°03'4 8.8
2017-Nov-26 17:30N 45°48' W 085°08'510.0
2017-Nov-26 17:00N 45°44' W 085°11'510.8
2017-Nov-26 16:30N 45°39' W 085°16'510.7
2017-Nov-26 16:00N 45°35' W 085°20'510.7
2017-Nov-26 15:31N 45°31' W 085°25'510.7
2017-Nov-26 15:00N 45°26' W 085°30'510.7
2017-Nov-26 14:30N 45°22' W 085°34'510.6
2017-Nov-26 14:00N 45°18' W 085°39'510.6
2017-Nov-26 13:30N 45°13' W 085°43'3510.1
2017-Nov-26 10:00N 44°48' W 086°18'   270 / 101022.610.8 0.5

Dump ship's entire track history